createdAt,value
2018-06-02T00:00:53.960Z,19.10
2018-06-02T00:01:57.215Z,19.30
2018-06-02T00:02:59.690Z,19.30
2018-06-02T00:04:02.173Z,19.40
2018-06-02T00:05:05.537Z,19.20
2018-06-02T00:06:08.061Z,19.20
2018-06-02T00:07:10.600Z,19.20
2018-06-02T00:08:13.086Z,19.10
2018-06-02T00:09:16.355Z,19.30
2018-06-02T00:10:18.991Z,19.20
2018-06-02T00:11:21.573Z,19.30
2018-06-02T00:12:24.018Z,19.30
2018-06-02T00:13:26.493Z,19.30
2018-06-02T00:14:28.968Z,19.30
2018-06-02T00:15:35.288Z,19.40
2018-06-02T00:16:37.788Z,19.30
2018-06-02T00:17:40.270Z,19.20
2018-06-02T00:18:42.782Z,19.00
2018-06-02T00:19:45.287Z,19.30
2018-06-02T00:20:47.803Z,19.20
2018-06-02T00:21:51.091Z,19.10
2018-06-02T00:22:53.570Z,19.20
2018-06-02T00:23:58.965Z,19.50
2018-06-02T00:25:01.595Z,19.50
2018-06-02T00:26:04.131Z,19.30
2018-06-02T00:27:06.625Z,19.10
2018-06-02T00:28:09.153Z,19.20
2018-06-02T00:29:11.740Z,19.10
2018-06-02T00:30:14.240Z,19.10
2018-06-02T00:31:16.750Z,19.00
2018-06-02T00:32:19.983Z,18.90
2018-06-02T00:33:22.469Z,18.90
2018-06-02T00:34:24.948Z,18.90
2018-06-02T00:35:27.469Z,18.90
2018-06-02T00:36:29.993Z,18.90
2018-06-02T00:37:32.508Z,19.00
2018-06-02T00:38:35.015Z,19.10
2018-06-02T00:39:37.500Z,19.10
2018-06-02T00:40:40.018Z,19.00
2018-06-02T00:41:43.131Z,18.90
2018-06-02T00:42:45.619Z,19.20
2018-06-02T00:43:48.885Z,19.20
2018-06-02T00:44:51.378Z,19.20
2018-06-02T00:45:53.878Z,19.10
2018-06-02T00:46:56.381Z,19.00
2018-06-02T00:47:58.875Z,19.00
2018-06-02T00:49:01.375Z,19.20
2018-06-02T00:50:03.897Z,19.30
2018-06-02T00:51:07.156Z,19.40
2018-06-02T00:52:10.485Z,20.00
2018-06-02T00:53:12.971Z,20.00
2018-06-02T00:54:15.457Z,19.70
2018-06-02T00:55:17.942Z,19.60
2018-06-02T00:56:20.417Z,19.40
2018-06-02T00:57:22.938Z,19.90
2018-06-02T00:58:25.423Z,20.00
2018-06-02T00:59:27.909Z,19.90
2018-06-02T01:00:30.400Z,19.90
2018-06-02T01:01:32.889Z,19.90
2018-06-02T01:02:36.158Z,20.00
2018-06-02T01:03:39.410Z,19.90
2018-06-02T01:04:41.896Z,19.80
2018-06-02T01:05:44.399Z,20.00
2018-06-02T01:06:47.646Z,20.10
2018-06-02T01:07:50.137Z,20.10
2018-06-02T01:08:52.630Z,20.00
2018-06-02T01:09:56.270Z,20.10
2018-06-02T01:10:58.772Z,20.10
2018-06-02T01:12:01.259Z,20.40
2018-06-02T01:13:04.537Z,20.40
2018-06-02T01:14:07.032Z,20.40
2018-06-02T01:15:09.549Z,20.40
2018-06-02T01:16:12.035Z,20.20
2018-06-02T01:17:14.546Z,20.00
2018-06-02T01:18:24.610Z,20.20
2018-06-02T01:19:27.110Z,20.20
2018-06-02T01:20:29.604Z,20.10
2018-06-02T01:21:32.100Z,20.10
2018-06-02T01:22:35.347Z,19.80
2018-06-02T01:24:46.074Z,19.70
2018-06-02T01:25:49.328Z,20.00
2018-06-02T01:26:51.807Z,20.00
2018-06-02T01:27:54.311Z,20.20
2018-06-02T01:28:56.819Z,20.10
2018-06-02T01:29:59.294Z,20.00
2018-06-02T01:31:01.780Z,20.30
2018-06-02T01:32:04.270Z,20.60
2018-06-02T01:33:06.785Z,20.40
2018-06-02T01:34:09.303Z,20.30
2018-06-02T01:35:11.785Z,20.50
2018-06-02T01:36:14.261Z,20.50
2018-06-02T01:37:17.506Z,20.50
2018-06-02T01:38:19.983Z,20.50
2018-06-02T01:39:22.520Z,20.80
2018-06-02T01:40:25.003Z,20.60
2018-06-02T01:41:27.504Z,20.50
2018-06-02T01:42:29.983Z,20.50
2018-06-02T01:43:32.475Z,20.40
2018-06-02T01:44:35.730Z,20.40
2018-06-02T01:45:38.219Z,20.40
2018-06-02T01:46:41.475Z,20.60
2018-06-02T01:47:43.963Z,20.60
2018-06-02T01:48:46.480Z,20.50
2018-06-02T01:49:48.960Z,20.80
2018-06-02T01:50:51.462Z,20.70
2018-06-02T01:51:53.944Z,20.70
2018-06-02T01:52:56.421Z,21.00
2018-06-02T01:53:58.925Z,20.90
2018-06-02T01:55:01.415Z,20.70
2018-06-02T01:56:04.706Z,21.10
2018-06-02T01:57:07.193Z,21.10
2018-06-02T01:58:09.716Z,21.40
2018-06-02T01:59:12.977Z,21.00
2018-06-02T02:00:15.453Z,21.00
2018-06-02T02:01:17.931Z,20.80
2018-06-02T02:02:21.188Z,20.50
2018-06-02T02:03:23.679Z,20.50
2018-06-02T02:04:26.168Z,20.70
2018-06-02T02:05:30.840Z,20.70
2018-06-02T02:06:33.323Z,20.70
2018-06-02T02:07:35.816Z,20.50
2018-06-02T02:08:38.325Z,20.50
2018-06-02T02:09:44.382Z,20.40
2018-06-02T02:10:46.892Z,20.10
2018-06-02T02:11:49.390Z,19.70
2018-06-02T02:12:52.639Z,20.00
2018-06-02T02:13:55.128Z,20.00
2018-06-02T02:14:57.623Z,20.10
2018-06-02T02:16:00.878Z,20.50
2018-06-02T02:17:03.380Z,20.50
2018-06-02T02:18:06.640Z,20.50
2018-06-02T02:19:09.169Z,20.40
2018-06-02T02:21:21.696Z,21.30
2018-06-02T02:22:24.182Z,21.30
2018-06-02T02:23:26.655Z,21.10
2018-06-02T02:24:29.224Z,21.00
2018-06-02T02:25:31.733Z,20.70
2018-06-02T02:26:34.216Z,20.60
2018-06-02T02:27:37.460Z,20.90
2018-06-02T02:28:39.942Z,20.90
2018-06-02T02:29:42.432Z,21.00
2018-06-02T02:30:46.143Z,21.00
2018-06-02T02:31:50.560Z,20.60
2018-06-02T02:32:53.930Z,20.70
2018-06-02T02:33:56.418Z,20.70
2018-06-02T02:34:59.686Z,20.70
2018-06-02T02:36:02.184Z,20.70
2018-06-02T02:37:05.455Z,20.50
2018-06-02T02:38:07.925Z,20.50
2018-06-02T02:39:10.412Z,21.00
2018-06-02T02:40:12.900Z,20.80
2018-06-02T02:42:23.357Z,20.70
2018-06-02T02:43:25.898Z,20.70
2018-06-02T02:44:28.384Z,20.80
2018-06-02T02:45:31.634Z,20.40
2018-06-02T02:46:34.148Z,20.40
2018-06-02T02:47:37.397Z,19.90
2018-06-02T02:48:39.881Z,19.90
2018-06-02T02:49:42.363Z,19.60
2018-06-02T02:50:44.847Z,19.70
2018-06-02T02:51:48.106Z,19.20
2018-06-02T02:52:50.591Z,19.10
2018-06-02T02:53:53.080Z,19.10
2018-06-02T02:54:56.335Z,19.40
2018-06-02T02:55:58.813Z,19.30
2018-06-02T02:57:01.296Z,19.30
2018-06-02T02:58:03.790Z,19.60
2018-06-02T02:59:06.284Z,20.00
2018-06-02T03:00:08.867Z,20.20
2018-06-02T03:01:11.464Z,20.20
2018-06-02T03:02:13.979Z,19.80
2018-06-02T03:03:16.450Z,19.60
2018-06-02T03:04:18.961Z,20.10
2018-06-02T03:05:21.438Z,20.60
2018-06-02T03:06:23.936Z,20.70
2018-06-02T03:07:26.469Z,20.40
2018-06-02T03:08:28.941Z,20.40
2018-06-02T03:09:31.423Z,20.50
2018-06-02T03:10:33.897Z,20.70
2018-06-02T03:11:36.388Z,20.40
2018-06-02T03:12:38.917Z,20.60
2018-06-02T03:13:41.404Z,20.80
2018-06-02T03:14:43.886Z,21.00
2018-06-02T03:15:46.384Z,20.90
2018-06-02T03:16:49.652Z,20.90
2018-06-02T03:17:52.135Z,20.90
2018-06-02T03:18:55.423Z,20.70
2018-06-02T03:19:58.719Z,20.60
2018-06-02T03:21:01.162Z,20.60
2018-06-02T03:22:05.374Z,20.80
2018-06-02T03:23:07.854Z,21.20
2018-06-02T03:24:11.130Z,21.30
2018-06-02T03:25:13.609Z,21.30
2018-06-02T03:26:16.137Z,21.40
2018-06-02T03:27:18.635Z,21.20
2018-06-02T03:28:21.154Z,21.00
2018-06-02T03:29:23.617Z,20.70
2018-06-02T03:30:26.117Z,21.00
2018-06-02T03:31:28.637Z,20.70
2018-06-02T03:32:31.148Z,21.20
2018-06-02T03:33:33.621Z,21.60
2018-06-02T03:34:36.119Z,21.80
2018-06-02T03:35:38.606Z,21.70
2018-06-02T03:36:41.150Z,21.80
2018-06-02T03:37:44.759Z,21.70
2018-06-02T03:38:47.264Z,21.70
2018-06-02T03:39:49.739Z,21.50
2018-06-02T03:40:53.038Z,21.80
2018-06-02T03:41:56.286Z,21.60
2018-06-02T03:42:58.791Z,21.60
2018-06-02T03:44:02.037Z,21.90
2018-06-02T03:45:04.551Z,21.80
2018-06-02T03:46:07.802Z,21.50
2018-06-02T03:47:10.353Z,21.50
2018-06-02T03:48:14.563Z,21.40
2018-06-02T03:49:17.089Z,21.30
2018-06-02T03:50:19.574Z,21.20
2018-06-02T03:51:22.056Z,21.10
2018-06-02T03:52:24.539Z,21.00
2018-06-02T03:53:27.034Z,21.10
2018-06-02T03:54:29.519Z,21.20
2018-06-02T03:55:31.999Z,21.30
2018-06-02T03:56:35.256Z,21.30
2018-06-02T03:57:37.738Z,21.30
2018-06-02T03:58:44.036Z,21.10
2018-06-02T03:59:46.535Z,20.90
2018-06-02T04:00:49.007Z,21.10
2018-06-02T04:01:51.492Z,21.40
2018-06-02T04:02:53.970Z,21.60
2018-06-02T04:03:59.995Z,21.60
2018-06-02T04:05:02.462Z,21.70
2018-06-02T04:06:05.009Z,21.70
2018-06-02T04:07:07.488Z,21.70
2018-06-02T04:08:10.034Z,21.80
2018-06-02T04:09:14.007Z,22.20
2018-06-02T04:10:16.489Z,22.20
2018-06-02T04:11:18.978Z,21.90
2018-06-02T04:12:21.466Z,21.80
2018-06-02T04:13:24.725Z,22.00
2018-06-02T04:14:27.256Z,22.00
2018-06-02T04:15:29.756Z,22.10
2018-06-02T04:16:32.232Z,22.30
2018-06-02T04:17:34.714Z,22.30
2018-06-02T04:18:37.192Z,22.50
2018-06-02T04:19:40.457Z,22.50
2018-06-02T04:20:42.935Z,22.50
2018-06-02T04:21:45.427Z,22.40
2018-06-02T04:22:48.678Z,22.30
2018-06-02T04:23:51.161Z,22.30
2018-06-02T04:24:53.671Z,22.50
2018-06-02T04:25:56.225Z,22.50
2018-06-02T04:26:58.825Z,22.50
2018-06-02T04:28:01.317Z,22.60
2018-06-02T04:29:03.812Z,22.50
2018-06-02T04:30:12.443Z,22.40
2018-06-02T04:31:15.178Z,22.20
2018-06-02T04:32:17.650Z,21.90
2018-06-02T04:33:20.139Z,22.10
2018-06-02T04:34:22.631Z,22.20
2018-06-02T04:35:25.126Z,22.10
2018-06-02T04:36:28.416Z,22.00
2018-06-02T04:37:30.903Z,22.10
2018-06-02T04:38:34.831Z,22.10
2018-06-02T04:39:37.340Z,21.80
2018-06-02T04:40:39.822Z,22.10
2018-06-02T04:41:43.065Z,22.10
2018-06-02T04:42:45.560Z,22.10
2018-06-02T04:43:48.042Z,21.80
2018-06-02T04:44:50.540Z,21.90
2018-06-02T04:45:53.020Z,21.80
2018-06-02T04:46:55.520Z,21.80
2018-06-02T04:47:57.998Z,21.60
2018-06-02T04:49:00.497Z,21.60
2018-06-02T04:50:02.997Z,21.70
2018-06-02T04:51:05.492Z,21.80
2018-06-02T04:52:07.974Z,21.80
2018-06-02T04:53:10.445Z,21.80
2018-06-02T04:54:12.982Z,21.70
2018-06-02T04:55:15.472Z,21.90
2018-06-02T04:56:17.952Z,22.00
2018-06-02T04:57:20.432Z,22.10
2018-06-02T04:58:22.926Z,22.20
2018-06-02T04:59:25.446Z,22.20
2018-06-02T05:00:27.945Z,22.30
2018-06-02T05:01:30.429Z,22.40
2018-06-02T05:02:33.020Z,22.40
2018-06-02T05:03:36.267Z,22.50
2018-06-02T05:04:39.288Z,22.50
2018-06-02T05:05:43.992Z,22.60
2018-06-02T05:06:46.483Z,22.60
2018-06-02T05:07:48.965Z,22.50
2018-06-02T05:08:51.455Z,22.50
2018-06-02T05:09:53.932Z,22.30
2018-06-02T05:10:56.448Z,22.20
2018-06-02T05:11:58.941Z,22.20
2018-06-02T05:13:02.193Z,22.40
2018-06-02T05:14:04.671Z,22.40
2018-06-02T05:15:07.209Z,22.40
2018-06-02T05:16:11.095Z,22.20
2018-06-02T05:17:14.342Z,22.20
2018-06-02T05:18:16.884Z,22.10
2018-06-02T05:19:19.358Z,22.30
2018-06-02T05:21:30.523Z,22.20
2018-06-02T05:22:33.012Z,22.20
2018-06-02T05:23:35.510Z,22.20
2018-06-02T05:24:38.013Z,22.30
2018-06-02T05:25:40.503Z,22.30
2018-06-02T05:26:43.002Z,22.30
2018-06-02T05:27:45.491Z,22.40
2018-06-02T05:28:47.962Z,22.40
2018-06-02T05:29:51.234Z,22.40
2018-06-02T05:30:53.736Z,22.40
2018-06-02T05:31:57.007Z,22.30
2018-06-02T05:32:59.491Z,22.20
2018-06-02T05:34:01.984Z,22.40
2018-06-02T05:35:04.484Z,22.40
2018-06-02T05:36:07.002Z,22.40
2018-06-02T05:37:10.363Z,22.10
2018-06-02T05:38:12.844Z,22.20
2018-06-02T05:39:15.352Z,22.30
2018-06-02T05:40:17.852Z,22.20
2018-06-02T05:41:20.335Z,21.90
2018-06-02T05:42:26.688Z,21.70
2018-06-02T05:43:29.213Z,22.00
2018-06-02T05:44:32.467Z,22.30
2018-06-02T05:45:34.959Z,22.30
2018-06-02T05:46:38.234Z,22.10
2018-06-02T05:47:40.723Z,22.10
2018-06-02T05:48:43.989Z,21.90
2018-06-02T05:49:46.486Z,21.90
2018-06-02T05:50:49.748Z,21.80
2018-06-02T05:51:52.253Z,21.80
2018-06-02T05:52:55.498Z,22.30
2018-06-02T05:53:58.007Z,22.30
2018-06-02T05:55:00.516Z,22.40
2018-06-02T05:56:03.005Z,22.30
2018-06-02T05:57:05.605Z,22.10
2018-06-02T05:58:08.107Z,22.10
2018-06-02T05:59:10.712Z,22.00
2018-06-02T06:00:13.212Z,21.80
2018-06-02T06:01:15.700Z,21.60
2018-06-02T06:02:18.974Z,21.90
2018-06-02T06:03:21.516Z,21.90
2018-06-02T06:04:24.003Z,22.10
2018-06-02T06:05:26.512Z,22.20
2018-06-02T06:06:29.835Z,22.00
2018-06-02T06:07:32.348Z,22.00
2018-06-02T06:08:34.846Z,22.20
2018-06-02T06:09:38.109Z,22.20
2018-06-02T06:10:40.596Z,22.20
2018-06-02T06:11:43.849Z,22.20
2018-06-02T06:12:46.357Z,22.20
2018-06-02T06:13:49.650Z,22.10
2018-06-02T06:14:52.914Z,21.80
2018-06-02T06:15:55.423Z,21.80
2018-06-02T06:16:58.661Z,22.20
2018-06-02T06:18:01.169Z,22.20
2018-06-02T06:19:04.464Z,22.20
2018-06-02T06:20:07.735Z,22.40
2018-06-02T06:21:10.325Z,22.30
2018-06-02T06:22:13.605Z,22.40
2018-06-02T06:23:18.468Z,22.50
2018-06-02T06:24:20.954Z,22.50
2018-06-02T06:25:23.443Z,22.50
2018-06-02T06:26:25.929Z,22.30
2018-06-02T06:27:29.231Z,22.40
2018-06-02T06:28:34.339Z,22.30
2018-06-02T06:29:36.867Z,22.30
2018-06-02T06:30:39.600Z,22.30
2018-06-02T06:31:42.087Z,22.30
2018-06-02T06:32:44.599Z,22.30
2018-06-02T06:33:47.089Z,22.50
2018-06-02T06:34:49.647Z,22.50
2018-06-02T06:35:52.151Z,22.40
2018-06-02T06:36:54.654Z,22.10
2018-06-02T06:37:57.215Z,22.30
2018-06-02T06:39:00.493Z,22.30
2018-06-02T06:40:03.009Z,22.30
2018-06-02T06:41:05.495Z,22.20
2018-06-02T06:42:07.978Z,22.20
2018-06-02T06:43:10.527Z,22.20
2018-06-02T06:44:14.638Z,22.30
2018-06-02T06:45:17.146Z,22.20
2018-06-02T06:46:20.416Z,21.70
2018-06-02T06:47:22.909Z,21.70
2018-06-02T06:48:26.179Z,21.60
2018-06-02T06:49:28.711Z,21.60
2018-06-02T06:50:31.250Z,21.80
2018-06-02T06:51:34.510Z,22.30
2018-06-02T06:52:37.017Z,22.20
2018-06-02T06:53:40.303Z,22.00
2018-06-02T06:54:43.567Z,21.80
2018-06-02T06:55:46.071Z,21.80
2018-06-02T06:56:48.552Z,22.00
2018-06-02T06:57:51.046Z,22.20
2018-06-02T06:58:56.567Z,22.20
2018-06-02T06:59:59.052Z,22.00
2018-06-02T07:01:01.562Z,22.00
2018-06-02T07:02:04.043Z,21.90
2018-06-02T07:03:07.307Z,21.90
2018-06-02T07:04:09.831Z,21.90
2018-06-02T07:05:12.323Z,22.00
2018-06-02T07:06:14.814Z,22.10
2018-06-02T07:07:17.324Z,22.10
2018-06-02T07:08:20.579Z,22.10
2018-06-02T07:09:24.324Z,22.10
2018-06-02T07:10:26.826Z,22.20
2018-06-02T07:11:29.351Z,22.10
2018-06-02T07:12:32.628Z,22.10
2018-06-02T07:13:35.133Z,22.10
2018-06-02T07:14:37.662Z,22.20
2018-06-02T07:15:40.163Z,22.30
2018-06-02T07:16:42.646Z,22.30
2018-06-02T07:17:45.168Z,22.30
2018-06-02T07:18:47.707Z,22.30
2018-06-02T07:19:50.196Z,22.30
2018-06-02T07:22:04.979Z,22.40
2018-06-02T07:23:07.472Z,22.40
2018-06-02T07:24:10.812Z,22.40
2018-06-02T07:25:13.335Z,22.40
2018-06-02T07:26:15.854Z,22.40
2018-06-02T07:27:18.331Z,22.30
2018-06-02T07:28:20.891Z,22.40
2018-06-02T07:30:31.804Z,22.40
2018-06-02T07:31:34.297Z,22.40
2018-06-02T07:32:37.642Z,22.50
2018-06-02T07:33:40.500Z,22.40
2018-06-02T07:34:44.448Z,22.40
2018-06-02T07:35:47.694Z,22.40
2018-06-02T07:36:50.190Z,22.40
2018-06-02T07:37:52.699Z,22.30
2018-06-02T07:38:55.188Z,22.40
2018-06-02T07:39:57.705Z,22.40
2018-06-02T07:41:00.193Z,22.30
2018-06-02T07:42:03.461Z,22.40
2018-06-02T07:43:05.957Z,22.40
2018-06-02T07:44:09.353Z,22.10
2018-06-02T07:45:12.643Z,22.00
2018-06-02T07:46:16.004Z,21.80
2018-06-02T07:47:18.494Z,21.80
2018-06-02T07:48:21.754Z,21.60
2018-06-02T07:49:24.236Z,21.60
2018-06-02T07:50:26.751Z,21.40
2018-06-02T07:51:29.250Z,21.30
2018-06-02T07:52:31.757Z,21.30
2018-06-02T07:53:35.030Z,21.20
2018-06-02T07:54:37.599Z,21.10
2018-06-02T07:55:40.112Z,21.10
2018-06-02T07:56:43.390Z,21.00
2018-06-02T07:57:46.659Z,21.00
2018-06-02T07:58:49.142Z,20.90
2018-06-02T07:59:51.653Z,21.00
2018-06-02T08:00:57.913Z,21.10
2018-06-02T08:02:00.410Z,21.10
2018-06-02T08:03:02.941Z,21.20
2018-06-02T08:04:05.431Z,21.30
2018-06-02T08:05:07.950Z,21.50
2018-06-02T08:06:10.808Z,21.60
2018-06-02T08:07:13.463Z,21.50
2018-06-02T08:08:15.994Z,21.50
2018-06-02T08:09:18.485Z,21.50
2018-06-02T08:10:21.036Z,21.50
2018-06-02T08:11:23.541Z,21.60
2018-06-02T08:12:26.034Z,21.70
2018-06-02T08:13:28.523Z,21.70
2018-06-02T08:14:31.150Z,21.70
2018-06-02T08:15:37.418Z,21.80
2018-06-02T08:16:40.688Z,21.80
2018-06-02T08:17:44.281Z,21.90
2018-06-02T08:18:46.792Z,22.00
2018-06-02T08:19:49.319Z,21.90
2018-06-02T08:20:52.721Z,22.00
2018-06-02T08:21:55.253Z,22.00
2018-06-02T08:22:57.743Z,22.00
2018-06-02T08:24:00.275Z,21.90
2018-06-02T08:25:02.772Z,21.90
2018-06-02T08:26:05.278Z,21.80
2018-06-02T08:27:07.780Z,21.70
2018-06-02T08:28:10.304Z,21.80
2018-06-02T08:29:12.806Z,21.70
2018-06-02T08:30:15.298Z,21.70
2018-06-02T08:31:17.805Z,21.70
2018-06-02T08:32:21.052Z,21.80
2018-06-02T08:33:23.548Z,21.80
2018-06-02T08:34:26.033Z,21.80
2018-06-02T08:35:29.316Z,21.80
2018-06-02T08:36:38.733Z,21.80
2018-06-02T08:37:41.236Z,21.80
2018-06-02T08:38:43.759Z,21.90
2018-06-02T08:39:46.247Z,21.90
2018-06-02T08:40:48.820Z,21.90
2018-06-02T08:41:51.331Z,22.00
2018-06-02T08:42:53.824Z,22.00
2018-06-02T08:43:56.355Z,22.20
2018-06-02T08:44:59.619Z,22.40
2018-06-02T08:46:02.158Z,22.40
2018-06-02T08:47:04.691Z,22.60
2018-06-02T08:48:07.950Z,22.50
2018-06-02T08:49:10.438Z,22.50
2018-06-02T08:50:13.699Z,22.60
2018-06-02T08:51:18.063Z,22.60
2018-06-02T08:52:20.560Z,22.40
2018-06-02T08:53:23.131Z,22.40
2018-06-02T08:54:27.442Z,22.50
2018-06-02T08:55:29.877Z,22.50
2018-06-02T08:56:33.139Z,22.40
2018-06-02T08:57:35.624Z,22.40
2018-06-02T08:58:38.131Z,22.50
2018-06-02T08:59:40.651Z,22.50
2018-06-02T09:00:43.177Z,22.50
2018-06-02T09:01:45.688Z,22.50
2018-06-02T09:02:48.183Z,22.60
2018-06-02T09:03:51.458Z,22.80
2018-06-02T09:04:53.973Z,22.70
2018-06-02T09:05:56.492Z,22.70
2018-06-02T09:06:59.014Z,22.60
2018-06-02T09:08:01.532Z,22.60
2018-06-02T09:09:04.093Z,22.60
2018-06-02T09:10:06.604Z,22.70
2018-06-02T09:11:09.873Z,22.50
2018-06-02T09:12:12.360Z,22.50
2018-06-02T09:13:16.107Z,22.70
2018-06-02T09:14:18.612Z,22.70
2018-06-02T09:15:21.106Z,22.80
2018-06-02T09:16:24.198Z,22.90
2018-06-02T09:17:26.737Z,23.00
2018-06-02T09:18:30.839Z,23.10
2018-06-02T09:19:33.929Z,23.20
2018-06-02T09:20:36.414Z,23.20
2018-06-02T09:21:39.009Z,23.30
2018-06-02T09:22:41.536Z,23.00
2018-06-02T09:23:44.036Z,23.40
2018-06-02T09:24:48.119Z,24.00
2018-06-02T09:25:50.700Z,24.00
2018-06-02T09:26:53.204Z,24.50
2018-06-02T09:27:55.853Z,24.80
2018-06-02T09:28:58.333Z,25.20
2018-06-02T09:30:01.592Z,25.70
2018-06-02T09:31:04.099Z,25.60
2018-06-02T09:32:07.375Z,25.70
2018-06-02T09:33:10.685Z,25.60
2018-06-02T09:34:13.201Z,25.60
2018-06-02T09:35:15.746Z,25.40
2018-06-02T09:36:18.189Z,25.00
2018-06-02T09:37:22.183Z,25.00
2018-06-02T09:38:27.255Z,25.10
2018-06-02T09:39:29.763Z,25.10
2018-06-02T09:40:32.253Z,25.20
2018-06-02T09:41:34.759Z,25.50
2018-06-02T09:42:39.091Z,25.60
2018-06-02T09:43:41.584Z,25.60
2018-06-02T09:44:44.079Z,25.50
2018-06-02T09:45:47.326Z,25.40
2018-06-02T09:46:49.811Z,25.40
2018-06-02T09:47:52.365Z,25.30
2018-06-02T09:48:54.936Z,25.40
2018-06-02T09:49:57.420Z,25.40
2018-06-02T09:51:00.064Z,25.30
2018-06-02T09:52:02.566Z,25.40
2018-06-02T09:53:05.060Z,25.30
2018-06-02T09:54:07.553Z,25.40
2018-06-02T09:55:10.381Z,25.40
2018-06-02T09:56:12.881Z,25.30
2018-06-02T09:57:15.459Z,25.40
2018-06-02T09:58:19.231Z,25.30
2018-06-02T09:59:21.759Z,25.00
2018-06-02T10:00:26.160Z,24.90
2018-06-02T10:01:29.399Z,25.20
2018-06-02T10:02:32.000Z,25.20
2018-06-02T10:03:35.964Z,25.20
2018-06-02T10:04:42.944Z,25.40
2018-06-02T10:05:45.420Z,25.40
2018-06-02T10:06:48.148Z,25.50
2018-06-02T10:07:51.523Z,25.50
2018-06-02T10:08:54.035Z,25.50
2018-06-02T10:09:56.813Z,25.80
2018-06-02T10:10:59.346Z,26.10
2018-06-02T10:12:01.844Z,26.20
2018-06-02T10:13:04.338Z,26.20
2018-06-02T10:14:06.898Z,26.00
2018-06-02T10:15:09.475Z,25.60
2018-06-02T10:16:12.037Z,25.30
2018-06-02T10:17:14.520Z,25.10
2018-06-02T10:18:17.017Z,24.90
2018-06-02T10:19:19.536Z,24.90
2018-06-02T10:20:22.053Z,24.80
2018-06-02T10:21:24.660Z,24.60
2018-06-02T10:22:27.309Z,24.40
2018-06-02T10:23:30.101Z,24.40
2018-06-02T10:24:32.669Z,24.20
2018-06-02T10:25:35.311Z,24.10
2018-06-02T10:26:37.828Z,24.20
2018-06-02T10:27:40.336Z,24.40
2018-06-02T10:28:42.815Z,24.50
2018-06-02T10:29:46.090Z,24.50
2018-06-02T10:30:48.588Z,24.50
2018-06-02T10:31:51.098Z,24.50
2018-06-02T10:32:53.608Z,24.40
2018-06-02T10:33:56.113Z,24.40
2018-06-02T10:34:58.609Z,24.30
2018-06-02T10:36:01.122Z,24.20
2018-06-02T10:37:06.074Z,24.20
2018-06-02T10:38:08.596Z,24.10
2018-06-02T10:39:11.162Z,24.00
2018-06-02T10:40:13.694Z,23.90
2018-06-02T10:41:16.179Z,23.80
2018-06-02T10:42:18.726Z,23.70
2018-06-02T10:43:21.227Z,23.60
2018-06-02T10:44:23.736Z,23.60
2018-06-02T10:45:27.008Z,23.70
2018-06-02T10:46:29.536Z,23.60
2018-06-02T10:47:32.015Z,23.70
2018-06-02T10:48:34.515Z,23.80
2018-06-02T10:49:37.130Z,23.90
2018-06-02T10:50:40.465Z,24.10
2018-06-02T10:51:44.498Z,24.20
2018-06-02T10:52:46.999Z,24.20
2018-06-02T10:53:49.499Z,24.30
2018-06-02T10:54:52.012Z,24.40
2018-06-02T10:55:54.554Z,24.40
2018-06-02T10:56:57.054Z,24.40
2018-06-02T10:57:59.557Z,24.40
2018-06-02T10:59:02.035Z,24.50
2018-06-02T11:00:04.533Z,24.60
2018-06-02T11:01:07.053Z,24.80
2018-06-02T11:02:09.568Z,25.00
2018-06-02T11:03:12.162Z,25.00
2018-06-02T11:04:14.669Z,25.30
2018-06-02T11:05:17.231Z,25.20
2018-06-02T11:06:19.736Z,25.30
2018-06-02T11:07:22.245Z,25.40
2018-06-02T11:08:24.763Z,25.50
2018-06-02T11:09:28.033Z,25.80
2018-06-02T11:10:32.476Z,25.80
2018-06-02T11:11:35.729Z,25.70
2018-06-02T11:12:38.219Z,25.70
2018-06-02T11:13:41.478Z,25.60
2018-06-02T11:14:43.989Z,25.60
2018-06-02T11:15:47.282Z,25.20
2018-06-02T11:16:50.554Z,25.00
2018-06-02T11:17:53.812Z,24.80
2018-06-02T11:18:57.679Z,24.80
2018-06-02T11:20:00.175Z,24.60
2018-06-02T11:21:02.717Z,24.70
2018-06-02T11:22:05.282Z,24.60
2018-06-02T11:23:08.593Z,24.70
2018-06-02T11:24:11.135Z,24.60
2018-06-02T11:25:15.534Z,24.60
2018-06-02T11:26:18.109Z,24.60
2018-06-02T11:27:20.622Z,24.50
2018-06-02T11:28:23.154Z,24.40
2018-06-02T11:29:25.647Z,24.10
2018-06-02T11:30:29.500Z,24.00
2018-06-02T11:31:32.033Z,23.80
2018-06-02T11:32:34.529Z,23.70
2018-06-02T11:33:37.070Z,23.60
2018-06-02T11:34:39.588Z,23.60
2018-06-02T11:35:42.115Z,23.60
2018-06-02T11:36:47.647Z,23.50
2018-06-02T11:37:50.140Z,23.50
2018-06-02T11:38:52.635Z,23.60
2018-06-02T11:39:55.125Z,23.50
2018-06-02T11:40:57.676Z,23.60
2018-06-02T11:42:00.156Z,23.80
2018-06-02T11:43:02.751Z,23.80
2018-06-02T11:44:06.042Z,24.00
2018-06-02T11:45:08.564Z,23.90
2018-06-02T11:46:11.880Z,24.00
2018-06-02T11:47:14.471Z,24.10
2018-06-02T11:48:16.975Z,24.20
2018-06-02T11:49:19.455Z,24.30
2018-06-02T11:50:21.961Z,24.50
2018-06-02T11:51:24.476Z,24.60
2018-06-02T11:52:27.006Z,24.80
2018-06-02T11:53:29.541Z,24.90
2018-06-02T11:54:32.032Z,25.00
2018-06-02T11:55:34.565Z,25.10
2018-06-02T11:56:37.073Z,25.00
2018-06-02T11:57:39.590Z,25.10
2018-06-02T11:58:42.119Z,25.10
2018-06-02T11:59:44.642Z,25.20
2018-06-02T12:00:47.138Z,25.10
2018-06-02T12:01:49.653Z,25.10
2018-06-02T12:02:52.159Z,25.00
2018-06-02T12:03:55.431Z,24.90
2018-06-02T12:04:57.937Z,24.90
2018-06-02T12:06:00.455Z,24.80
2018-06-02T12:07:02.961Z,24.80
2018-06-02T12:08:06.220Z,24.70
2018-06-02T12:09:09.230Z,24.70
2018-06-02T12:10:31.144Z,24.60
2018-06-02T12:11:33.647Z,24.60
2018-06-02T12:12:36.907Z,24.70
2018-06-02T12:13:39.449Z,24.60
2018-06-02T12:14:41.941Z,24.70
2018-06-02T12:15:44.445Z,24.70
2018-06-02T12:16:46.959Z,24.80
2018-06-02T12:17:49.497Z,24.60
2018-06-02T12:18:52.004Z,24.80
2018-06-02T12:19:54.520Z,24.80
2018-06-02T12:20:57.043Z,24.80
2018-06-02T12:21:59.535Z,24.80
2018-06-02T12:23:02.057Z,24.90
2018-06-02T12:24:04.556Z,25.10
2018-06-02T12:25:07.117Z,25.30
2018-06-02T12:26:09.672Z,25.40
2018-06-02T12:27:12.238Z,25.50
2018-06-02T12:28:14.935Z,25.60
2018-06-02T12:29:17.500Z,25.60
2018-06-02T12:30:19.989Z,25.70
2018-06-02T12:31:22.527Z,25.70
2018-06-02T12:32:25.031Z,25.80
2018-06-02T12:33:27.680Z,26.00
2018-06-02T12:34:30.215Z,26.00
2018-06-02T12:35:33.478Z,25.90
2018-06-02T12:36:35.993Z,25.80
2018-06-02T12:37:39.263Z,25.70
2018-06-02T12:38:42.541Z,25.70
2018-06-02T12:39:45.044Z,25.70
2018-06-02T12:40:47.532Z,25.70
2018-06-02T12:41:50.048Z,25.60
2018-06-02T12:42:52.566Z,25.40
2018-06-02T12:43:55.059Z,25.20
2018-06-02T12:44:57.559Z,25.00
2018-06-02T12:46:00.045Z,24.80
2018-06-02T12:47:02.534Z,24.60
2018-06-02T12:48:05.835Z,24.40
2018-06-02T12:49:08.399Z,24.30
2018-06-02T12:50:10.910Z,24.20
2018-06-02T12:51:13.444Z,24.00
2018-06-02T12:52:15.924Z,23.90
2018-06-02T12:53:18.491Z,23.80
2018-06-02T12:54:20.992Z,23.70
2018-06-02T12:55:23.494Z,23.60
2018-06-02T12:56:25.977Z,23.60
2018-06-02T12:57:29.250Z,23.40
2018-06-02T12:58:31.756Z,23.40
2018-06-02T12:59:34.276Z,23.50
2018-06-02T13:00:36.777Z,23.50
2018-06-02T13:01:40.061Z,23.40
2018-06-02T13:02:42.549Z,23.40
2018-06-02T13:03:45.847Z,23.50
2018-06-02T13:04:48.345Z,23.50
2018-06-02T13:05:51.627Z,23.40
2018-06-02T13:06:54.117Z,23.40
2018-06-02T13:07:56.626Z,23.40
2018-06-02T13:08:59.910Z,23.30
2018-06-02T13:10:02.404Z,23.30
2018-06-02T13:11:04.942Z,23.30
2018-06-02T13:12:07.454Z,23.20
2018-06-02T13:13:10.009Z,23.20
2018-06-02T13:14:14.252Z,23.20
2018-06-02T13:15:16.800Z,23.20
2018-06-02T13:16:19.298Z,23.10
2018-06-02T13:17:21.930Z,23.10
2018-06-02T13:18:24.450Z,23.20
2018-06-02T13:19:26.960Z,23.10
2018-06-02T13:20:29.467Z,23.10
2018-06-02T13:21:31.957Z,23.00
2018-06-02T13:22:35.198Z,22.90
2018-06-02T13:23:39.038Z,22.80
2018-06-02T13:24:41.527Z,22.70
2018-06-02T13:25:44.027Z,22.40
2018-06-02T13:26:46.529Z,22.40
2018-06-02T13:27:49.077Z,22.40
2018-06-02T13:28:51.606Z,22.40
2018-06-02T13:29:54.112Z,22.40
2018-06-02T13:30:56.597Z,22.40
2018-06-02T13:31:59.845Z,22.50
2018-06-02T13:33:03.512Z,22.50
2018-06-02T13:34:06.569Z,22.50
2018-06-02T13:35:09.079Z,22.50
2018-06-02T13:36:12.239Z,22.60